Time;durP1;ratioP1;P1;durP2;ratioP2;P2;SDS_P1;SDS_P2;PMS_P1;PMS_P2;Temp;Humidity;BMP_temperature;BMP_pressure;BME280_temperature;BME280_humidity;BME280_pressure;Samples;Min_cycle;Max_cycle;Signal;HPM_P1;HPM_P2
2022/07/04 00:01:06;;;;;;;11.85;9.10;;;;;;;;;;4959108;29;20047;-76
2022/07/04 00:03:52;;;;;;;11.02;8.35;;;;;;;;;;4958274;29;20051;-76
2022/07/04 00:06:37;;;;;;;9.80;8.57;;;;;;;;;;4965002;28;20043;-78
2022/07/04 00:09:23;;;;;;;13.10;9.00;;;;;;;;;;4959635;29;20481;-78
2022/07/04 00:12:09;;;;;;;16.27;9.05;;;;;;;;;;4958618;29;20039;-76
2022/07/04 00:14:54;;;;;;;10.73;9.35;;;;;;;;;;4956103;29;20059;-76
2022/07/04 00:17:41;;;;;;;13.07;8.63;;;;;;;;;;4948068;29;20031;-77
2022/07/04 00:20:26;;;;;;;9.75;8.75;;;;;;;;;;4957647;29;20039;-77
2022/07/04 00:23:11;;;;;;;11.02;8.70;;;;;;;;;;4948052;28;20047;-76
2022/07/04 00:25:57;;;;;;;15.85;9.93;;;;;;;;;;4956049;29;20051;-77
2022/07/04 00:28:42;;;;;;;13.45;11.00;;;;;;;;;;4955927;29;20043;-76
2022/07/04 00:31:28;;;;;;;17.00;10.82;;;;;;;;;;4956477;29;20493;-76
2022/07/04 00:34:14;;;;;;;14.07;11.27;;;;;;;;;;4962805;28;20039;-77
2022/07/04 00:36:59;;;;;;;14.75;11.15;;;;;;;;;;4955905;29;20036;-77
2022/07/04 00:39:45;;;;;;;14.95;11.50;;;;;;;;;;4955863;29;20043;-77
2022/07/04 00:42:30;;;;;;;14.63;11.05;;;;;;;;;;4961561;29;20409;-77
2022/07/04 00:45:16;;;;;;;15.30;11.30;;;;;;;;;;4963209;29;20035;-77
2022/07/04 00:48:01;;;;;;;15.35;12.20;;;;;;;;;;4956340;29;20047;-77
2022/07/04 00:50:48;;;;;;;20.88;12.48;;;;;;;;;;4956301;29;20393;-77
2022/07/04 00:53:34;;;;;;;13.25;11.68;;;;;;;;;;4956651;29;20039;-78
2022/07/04 00:56:23;;;;;;;12.38;9.90;;;;;;;;;;4956819;29;20039;-77
2022/07/04 00:59:09;;;;;;;13.95;9.93;;;;;;;;;;4958919;28;20039;-78
2022/07/04 01:01:55;;;;;;;12.45;9.10;;;;;;;;;;4960334;29;20493;-77
2022/07/04 01:04:40;;;;;;;13.07;9.02;;;;;;;;;;4960115;29;20039;-78
2022/07/04 01:07:26;;;;;;;12.23;9.07;;;;;;;;;;4966225;28;20043;-77
2022/07/04 01:10:11;;;;;;;13.52;9.80;;;;;;;;;;4965174;28;20401;-76
2022/07/04 01:12:57;;;;;;;14.60;10.02;;;;;;;;;;4964823;28;20039;-76
2022/07/04 01:15:42;;;;;;;13.60;9.55;;;;;;;;;;4958356;29;20051;-78
2022/07/04 01:18:28;;;;;;;11.90;8.73;;;;;;;;;;4958162;29;20482;-78
2022/07/04 01:21:13;;;;;;;13.23;9.30;;;;;;;;;;4958237;29;20047;-77
2022/07/04 01:23:59;;;;;;;14.00;9.73;;;;;;;;;;4948087;29;20043;-77
2022/07/04 01:26:44;;;;;;;12.95;8.75;;;;;;;;;;4969134;28;20039;-77
2022/07/04 01:29:31;;;;;;;13.77;9.48;;;;;;;;;;4961217;29;20397;-76
2022/07/04 01:32:17;;;;;;;17.45;10.38;;;;;;;;;;4961030;29;20477;-77
2022/07/04 01:35:03;;;;;;;13.60;9.73;;;;;;;;;;4963161;29;20046;-77
2022/07/04 01:37:49;;;;;;;11.02;9.88;;;;;;;;;;4961819;29;20039;-76
2022/07/04 01:40:35;;;;;;;12.65;10.13;;;;;;;;;;4961046;29;20043;-77
2022/07/04 01:43:20;;;;;;;14.02;10.13;;;;;;;;;;4960874;29;20051;-77
2022/07/04 01:46:05;;;;;;;10.43;9.30;;;;;;;;;;4961896;29;20492;-77
2022/07/04 01:48:51;;;;;;;14.88;10.00;;;;;;;;;;4960421;29;20039;-78
2022/07/04 01:51:44;;;;;;;14.40;9.57;;;;;;;;;;4961106;29;20047;-78
2022/07/04 01:54:30;;;;;;;12.13;9.75;;;;;;;;;;4959975;29;20047;-78
2022/07/04 01:57:15;;;;;;;12.65;10.30;;;;;;;;;;4965724;28;20051;-77
2022/07/04 02:03:05;;;;;;;14.95;10.48;;;;;;;;;;4957494;29;20046;-77
2022/07/04 02:05:51;;;;;;;13.02;10.73;;;;;;;;;;4957341;29;20039;-77
2022/07/04 02:14:44;;;;;;;663.83;591.63;;;;;;;;;;4957188;29;20047;-79
2022/07/04 02:17:30;;;;;;;177.95;131.27;;;;;;;;;;4957241;29;20047;-77
2022/07/04 02:20:15;;;;;;;110.57;74.90;;;;;;;;;;4957257;29;20051;-77
2022/07/04 02:23:02;;;;;;;35.95;27.38;;;;;;;;;;4957220;29;20047;-78
2022/07/04 02:25:48;;;;;;;27.65;20.67;;;;;;;;;;4957384;29;20047;-76
2022/07/04 02:28:33;;;;;;;18.15;14.27;;;;;;;;;;4956608;29;20047;-78
2022/07/04 02:31:19;;;;;;;18.02;13.00;;;;;;;;;;4956887;29;20047;-77
2022/07/04 02:34:05;;;;;;;14.45;11.95;;;;;;;;;;4957711;28;20047;-78
2022/07/04 02:36:50;;;;;;;15.68;12.52;;;;;;;;;;4957011;29;20036;-77
2022/07/04 02:39:37;;;;;;;15.02;12.90;;;;;;;;;;4963200;28;20043;-78
2022/07/04 02:42:22;;;;;;;17.23;12.13;;;;;;;;;;4961939;28;20043;-77
2022/07/04 02:45:10;;;;;;;15.40;12.00;;;;;;;;;;4956343;29;20050;-77
2022/07/04 02:47:55;;;;;;;16.45;11.43;;;;;;;;;;4961867;28;20039;-79
2022/07/04 02:50:41;;;;;;;15.23;11.43;;;;;;;;;;4957115;29;20047;-79
2022/07/04 02:53:26;;;;;;;17.65;11.48;;;;;;;;;;4956271;29;20039;-79
2022/07/04 02:56:12;;;;;;;17.10;11.60;;;;;;;;;;4957807;29;20050;-79
2022/07/04 02:58:57;;;;;;;13.98;11.25;;;;;;;;;;4960254;29;20039;-78
2022/07/04 03:01:43;;;;;;;15.55;10.82;;;;;;;;;;4959350;29;20059;-82
2022/07/04 03:04:29;;;;;;;11.43;10.18;;;;;;;;;;4956503;29;20043;-78
2022/07/04 03:07:14;;;;;;;14.65;10.52;;;;;;;;;;4942118;29;20401;-79
2022/07/04 03:09:59;;;;;;;17.42;11.27;;;;;;;;;;4962843;28;20039;-77
2022/07/04 03:12:45;;;;;;;14.40;11.52;;;;;;;;;;4948420;28;20043;-77
2022/07/04 03:15:31;;;;;;;17.30;11.75;;;;;;;;;;4956406;29;20489;-77
2022/07/04 03:18:19;;;;;;;17.10;11.45;;;;;;;;;;4962792;28;20035;-78
2022/07/04 03:21:05;;;;;;;12.48;11.18;;;;;;;;;;4964168;28;20043;-77
2022/07/04 03:24:00;;;;;;;17.48;11.30;;;;;;;;;;4944762;29;20077;-77
2022/07/04 03:26:46;;;;;;;16.85;11.65;;;;;;;;;;4965315;28;20509;-77
2022/07/04 03:29:31;;;;;;;15.05;11.82;;;;;;;;;;4957494;29;20047;-77
2022/07/04 03:32:17;;;;;;;17.98;12.27;;;;;;;;;;4962577;28;20051;-77
2022/07/04 03:35:02;;;;;;;17.33;11.60;;;;;;;;;;4955937;29;20043;-79
2022/07/04 03:37:48;;;;;;;14.35;11.90;;;;;;;;;;4955805;29;20051;-77
2022/07/04 03:40:35;;;;;;;18.80;12.40;;;;;;;;;;4955790;28;20050;-78
2022/07/04 03:43:20;;;;;;;14.00;11.20;;;;;;;;;;4955519;29;20489;-77
2022/07/04 03:46:05;;;;;;;12.98;11.38;;;;;;;;;;4955589;29;20047;-77
2022/07/04 03:48:51;;;;;;;16.85;11.30;;;;;;;;;;4955385;29;20043;-78
2022/07/04 03:51:37;;;;;;;14.45;10.13;;;;;;;;;;4955716;29;20401;-79
2022/07/04 03:54:22;;;;;;;14.80;10.43;;;;;;;;;;4956292;29;20047;-79
2022/07/04 03:57:08;;;;;;;15.00;11.02;;;;;;;;;;4955855;29;20047;-78
2022/07/04 03:59:53;;;;;;;13.00;10.70;;;;;;;;;;4955614;29;20405;-77
2022/07/04 04:02:39;;;;;;;12.88;9.88;;;;;;;;;;4955966;29;20043;-78
2022/07/04 04:05:30;;;;;;;12.18;9.82;;;;;;;;;;4955801;29;20039;-79
2022/07/04 04:08:15;;;;;;;14.27;10.35;;;;;;;;;;4955369;29;20051;-77
2022/07/04 04:11:01;;;;;;;14.68;10.48;;;;;;;;;;4956136;29;20043;-79
2022/07/04 04:13:46;;;;;;;13.55;10.13;;;;;;;;;;4957017;29;20401;-77
2022/07/04 04:16:32;;;;;;;14.63;9.85;;;;;;;;;;4955556;29;20047;-78
2022/07/04 04:19:18;;;;;;;12.48;9.93;;;;;;;;;;4955502;29;20505;-76
2022/07/04 04:22:05;;;;;;;16.33;9.70;;;;;;;;;;4955386;29;20051;-78
2022/07/04 04:24:51;;;;;;;15.55;10.57;;;;;;;;;;4955647;29;20051;-77
2022/07/04 04:27:36;;;;;;;13.52;10.43;;;;;;;;;;4955228;29;20039;-76
2022/07/04 04:30:22;;;;;;;14.57;10.00;;;;;;;;;;4955697;29;20039;-77
2022/07/04 04:33:07;;;;;;;14.05;10.50;;;;;;;;;;4956212;28;20477;-77
2022/07/04 04:35:53;;;;;;;15.50;10.20;;;;;;;;;;4959265;29;20046;-77
2022/07/04 04:38:39;;;;;;;13.73;9.15;;;;;;;;;;4959617;29;20035;-78
2022/07/04 04:41:24;;;;;;;17.98;9.57;;;;;;;;;;4959136;29;20047;-76
2022/07/04 04:44:10;;;;;;;19.98;9.98;;;;;;;;;;4958469;29;20051;-76
2022/07/04 04:46:55;;;;;;;13.38;9.63;;;;;;;;;;4959133;29;20043;-79
2022/07/04 04:49:41;;;;;;;15.45;9.90;;;;;;;;;;4958891;29;20047;-76
2022/07/04 04:52:27;;;;;;;19.25;9.65;;;;;;;;;;4958867;29;20055;-77
2022/07/04 04:55:12;;;;;;;16.10;10.27;;;;;;;;;;4958673;29;20047;-78
2022/07/04 04:57:58;;;;;;;15.48;10.00;;;;;;;;;;4958434;29;20051;-79
2022/07/04 05:00:43;;;;;;;18.30;10.32;;;;;;;;;;4958841;29;20369;-79
2022/07/04 05:03:29;;;;;;;14.45;10.32;;;;;;;;;;4958525;29;20043;-79
2022/07/04 05:06:15;;;;;;;15.65;10.95;;;;;;;;;;4958362;29;20051;-79
2022/07/04 05:09:00;;;;;;;17.65;11.23;;;;;;;;;;4949779;28;20047;-78
2022/07/04 05:11:46;;;;;;;16.05;10.55;;;;;;;;;;4958425;29;20047;-78
2022/07/04 05:14:32;;;;;;;16.85;10.27;;;;;;;;;;4957927;29;20043;-80
2022/07/04 05:17:17;;;;;;;19.48;10.43;;;;;;;;;;4958188;29;20051;-80
2022/07/04 05:20:03;;;;;;;14.00;10.15;;;;;;;;;;4958356;29;20047;-80
2022/07/04 05:22:48;;;;;;;15.75;9.73;;;;;;;;;;4958013;29;20481;-79
2022/07/04 05:25:34;;;;;;;17.92;9.95;;;;;;;;;;4957973;29;20055;-79
2022/07/04 05:28:19;;;;;;;16.70;10.10;;;;;;;;;;4957531;29;20048;-78
2022/07/04 05:31:05;;;;;;;19.33;9.50;;;;;;;;;;4957828;29;20043;-79
2022/07/04 05:33:54;;;;;;;13.07;9.15;;;;;;;;;;4957895;29;20417;-79
2022/07/04 05:36:39;;;;;;;13.73;9.30;;;;;;;;;;4957802;29;20491;-80
2022/07/04 05:39:24;;;;;;;14.50;9.20;;;;;;;;;;4958167;29;20039;-79
2022/07/04 05:42:10;;;;;;;16.05;9.75;;;;;;;;;;4957376;29;20043;-79
2022/07/04 05:44:56;;;;;;;15.80;9.60;;;;;;;;;;4956504;28;20043;-79
2022/07/04 05:47:41;;;;;;;16.73;9.38;;;;;;;;;;4957489;29;20045;-79
2022/07/04 05:50:27;;;;;;;13.27;8.90;;;;;;;;;;4957728;29;20043;-80
2022/07/04 05:53:12;;;;;;;18.08;8.55;;;;;;;;;;4957560;29;20385;-79
2022/07/04 05:55:58;;;;;;;13.23;8.98;;;;;;;;;;4957692;29;20051;-80
2022/07/04 05:58:44;;;;;;;11.77;9.00;;;;;;;;;;4963738;28;20043;-79
2022/07/04 06:01:29;;;;;;;16.55;8.68;;;;;;;;;;4957235;29;20043;-79
2022/07/04 06:04:15;;;;;;;15.05;8.77;;;;;;;;;;4957377;29;20059;-79
2022/07/04 06:07:02;;;;;;;12.35;8.80;;;;;;;;;;4947177;28;20050;-79
2022/07/04 06:09:47;;;;;;;14.13;7.97;;;;;;;;;;4957080;29;20047;-80
2022/07/04 06:12:33;;;;;;;13.07;8.50;;;;;;;;;;4957074;29;20051;-79
2022/07/04 06:15:18;;;;;;;11.70;9.05;;;;;;;;;;4957421;29;20035;-79
2022/07/04 06:18:04;;;;;;;14.98;9.10;;;;;;;;;;4957038;29;20409;-79
2022/07/04 06:20:49;;;;;;;13.45;8.93;;;;;;;;;;4956896;29;20047;-80
2022/07/04 06:23:35;;;;;;;18.00;9.02;;;;;;;;;;4957225;29;20051;-79
2022/07/04 06:26:21;;;;;;;12.32;8.52;;;;;;;;;;4957036;29;20043;-80
2022/07/04 06:29:06;;;;;;;15.32;9.43;;;;;;;;;;4956934;29;20047;-79
2022/07/04 06:31:52;;;;;;;12.45;9.50;;;;;;;;;;4956458;29;20043;-77
2022/07/04 06:37:41;;;;;;;14.90;9.68;;;;;;;;;;4956902;29;20509;-79
2022/07/04 06:40:26;;;;;;;15.13;9.27;;;;;;;;;;4956535;29;20261;-80
2022/07/04 06:43:12;;;;;;;16.52;9.60;;;;;;;;;;4944941;29;20052;-79
2022/07/04 06:45:58;;;;;;;15.68;9.50;;;;;;;;;;4956785;29;20047;-80
2022/07/04 06:48:43;;;;;;;18.48;9.95;;;;;;;;;;4956283;29;20035;-79
2022/07/04 06:51:29;;;;;;;12.07;9.52;;;;;;;;;;4956483;29;20047;-79
2022/07/04 06:54:15;;;;;;;14.77;9.10;;;;;;;;;;4956307;29;20055;-78
2022/07/04 06:57:01;;;;;;;13.27;9.00;;;;;;;;;;4948529;28;20478;-77
2022/07/04 06:59:47;;;;;;;17.00;9.25;;;;;;;;;;4956438;29;20040;-78
2022/07/04 07:02:35;;;;;;;17.52;9.45;;;;;;;;;;4956072;29;20043;-78
2022/07/04 07:05:20;;;;;;;16.42;9.48;;;;;;;;;;4956192;29;20048;-78
2022/07/04 07:08:06;;;;;;;10.52;8.75;;;;;;;;;;4955995;29;20499;-77
2022/07/04 07:10:51;;;;;;;11.80;9.07;;;;;;;;;;4956275;29;20047;-78
2022/07/04 07:13:36;;;;;;;16.00;10.05;;;;;;;;;;4956030;29;20051;-78
2022/07/04 07:16:23;;;;;;;16.50;8.90;;;;;;;;;;4955600;29;20051;-80
2022/07/04 07:19:09;;;;;;;12.82;9.32;;;;;;;;;;4955635;29;20482;-79
2022/07/04 07:21:54;;;;;;;14.75;9.57;;;;;;;;;;4955658;29;20047;-80
2022/07/04 07:24:40;;;;;;;14.13;9.43;;;;;;;;;;4955850;29;20055;-78
2022/07/04 07:27:25;;;;;;;14.45;9.43;;;;;;;;;;4956086;29;20050;-80
2022/07/04 07:30:12;;;;;;;13.32;9.73;;;;;;;;;;4956078;29;20385;-80
2022/07/04 07:32:57;;;;;;;16.63;9.20;;;;;;;;;;4955900;29;20043;-78
2022/07/04 07:35:43;;;;;;;13.00;9.07;;;;;;;;;;4955695;29;20047;-78
2022/07/04 07:38:29;;;;;;;12.95;8.80;;;;;;;;;;4955710;29;20039;-80
2022/07/04 07:41:15;;;;;;;12.68;8.88;;;;;;;;;;4955508;29;20051;-78
2022/07/04 07:44:00;;;;;;;11.02;8.73;;;;;;;;;;4955304;29;20051;-78
2022/07/04 07:46:46;;;;;;;12.70;8.85;;;;;;;;;;4954942;29;20047;-79
2022/07/04 07:49:31;;;;;;;14.75;8.95;;;;;;;;;;4954832;29;20437;-79
2022/07/04 07:52:17;;;;;;;16.02;8.88;;;;;;;;;;4955102;29;20051;-79
2022/07/04 07:55:03;;;;;;;13.07;8.77;;;;;;;;;;4955343;29;20047;-77
2022/07/04 07:57:48;;;;;;;17.55;9.20;;;;;;;;;;4955466;29;20409;-78
2022/07/04 08:00:34;;;;;;;15.25;9.38;;;;;;;;;;4955323;29;20405;-78
2022/07/04 08:06:23;;;;;;;18.77;9.43;;;;;;;;;;4955360;29;20393;-80
2022/07/04 08:09:08;;;;;;;15.23;9.32;;;;;;;;;;4957745;28;20047;-79
2022/07/04 08:11:53;;;;;;;11.77;8.85;;;;;;;;;;4959035;29;20039;-80
2022/07/04 08:14:39;;;;;;;11.68;8.48;;;;;;;;;;4958892;29;20401;-81
2022/07/04 08:17:25;;;;;;;10.57;8.80;;;;;;;;;;4951146;28;20043;-80
2022/07/04 08:20:11;;;;;;;15.95;8.80;;;;;;;;;;4959430;29;20043;-80
2022/07/04 08:22:56;;;;;;;13.60;8.65;;;;;;;;;;4959119;29;20388;-79
2022/07/04 08:25:42;;;;;;;10.73;8.40;;;;;;;;;;4959348;29;20047;-80
2022/07/04 08:28:28;;;;;;;17.05;8.57;;;;;;;;;;4958569;29;20445;-80
2022/07/04 08:31:14;;;;;;;12.07;8.45;;;;;;;;;;4959070;29;20062;-79
2022/07/04 08:33:59;;;;;;;14.73;8.60;;;;;;;;;;4959320;29;20048;-79
2022/07/04 08:36:45;;;;;;;11.85;8.60;;;;;;;;;;4959123;29;20417;-79
2022/07/04 08:39:31;;;;;;;13.15;8.70;;;;;;;;;;4958446;29;20119;-80
2022/07/04 08:42:19;;;;;;;11.80;8.95;;;;;;;;;;4957951;29;20043;-80
2022/07/04 08:45:07;;;;;;;17.33;8.30;;;;;;;;;;4958487;29;20042;-80
2022/07/04 08:47:58;;;;;;;11.40;7.85;;;;;;;;;;4958510;29;20047;-80
2022/07/04 08:50:49;;;;;;;12.35;8.38;;;;;;;;;;4958969;29;20469;-80
2022/07/04 08:53:37;;;;;;;13.70;8.27;;;;;;;;;;4958493;29;20051;-79
2022/07/04 08:59:27;;;;;;;;;;;;;;;;;;4959129;29;20402;-79
2022/07/04 09:02:16;;;;;;;11.60;8.82;;;;;;;;;;4958340;29;19914;-79
2022/07/04 09:05:02;;;;;;;15.43;8.60;;;;;;;;;;4958977;29;20039;-79
2022/07/04 09:07:47;;;;;;;13.60;9.00;;;;;;;;;;4958504;29;20043;-78
2022/07/04 09:10:33;;;;;;;14.55;9.65;;;;;;;;;;4943677;29;20055;-78
2022/07/04 09:13:19;;;;;;;17.40;9.50;;;;;;;;;;4958317;29;20424;-78
2022/07/04 09:16:05;;;;;;;14.25;8.38;;;;;;;;;;4958407;29;20051;-78
2022/07/04 09:18:53;;;;;;;15.32;9.07;;;;;;;;;;4958118;28;20052;-79
2022/07/04 09:21:47;;;;;;;13.20;9.00;;;;;;;;;;4957906;29;20051;-79
2022/07/04 09:24:49;;;;;;;17.60;9.65;;;;;;;;;;4958144;29;20047;-78
2022/07/04 09:27:36;;;;;;;20.13;9.63;;;;;;;;;;4957939;29;20473;-79
2022/07/04 09:30:24;;;;;;;23.52;9.27;;;;;;;;;;4957909;29;20393;-78
2022/07/04 09:33:09;;;;;;;18.70;10.02;;;;;;;;;;4957405;29;20047;-76
2022/07/04 09:35:56;;;;;;;21.55;9.95;;;;;;;;;;4964070;28;20385;-79
2022/07/04 09:38:43;;;;;;;17.67;9.23;;;;;;;;;;4957617;29;20047;-80
2022/07/04 09:41:35;;;;;;;14.05;9.73;;;;;;;;;;4957748;29;20497;-81
2022/07/04 09:44:23;;;;;;;15.75;9.57;;;;;;;;;;4957148;29;20047;-85
2022/07/04 09:47:22;;;;;;;13.15;9.38;;;;;;;;;;4964434;28;20039;-81
2022/07/04 09:50:18;;;;;;;20.05;9.07;;;;;;;;;;4957168;29;20047;-79
2022/07/04 09:53:03;;;;;;;18.60;9.50;;;;;;;;;;4957554;29;20047;-80
2022/07/04 09:55:50;;;;;;;20.23;9.50;;;;;;;;;;4957264;29;20047;-80
2022/07/04 09:58:36;;;;;;;20.45;9.43;;;;;;;;;;4957411;29;20043;-80
2022/07/04 10:01:22;;;;;;;15.02;9.07;;;;;;;;;;4957087;29;20477;-80
2022/07/04 10:04:07;;;;;;;15.73;9.60;;;;;;;;;;4957383;29;20508;-77
2022/07/04 10:06:52;;;;;;;13.00;8.90;;;;;;;;;;4957254;29;20393;-79
2022/07/04 10:09:38;;;;;;;16.55;9.15;;;;;;;;;;4956665;29;20039;-78
2022/07/04 10:12:28;;;;;;;14.35;9.45;;;;;;;;;;4957300;29;20051;-79
2022/07/04 10:15:13;;;;;;;16.58;9.05;;;;;;;;;;4957371;29;20043;-79
2022/07/04 10:17:59;;;;;;;16.67;9.50;;;;;;;;;;4957193;29;20481;-81
2022/07/04 10:20:45;;;;;;;14.63;9.45;;;;;;;;;;4958123;29;20047;-78
2022/07/04 10:23:33;;;;;;;16.45;9.85;;;;;;;;;;4956791;29;20043;-80
2022/07/04 10:26:20;;;;;;;10.70;8.73;;;;;;;;;;4957088;29;20043;-78
2022/07/04 10:29:05;;;;;;;13.52;9.23;;;;;;;;;;4957047;29;20051;-80
2022/07/04 10:31:51;;;;;;;12.95;9.40;;;;;;;;;;4956470;28;20385;-78
2022/07/04 10:34:41;;;;;;;12.38;8.70;;;;;;;;;;4957115;29;20043;-79
2022/07/04 10:38:02;;;;;;;16.42;9.32;;;;;;;;;;4948536;28;20484;-79
2022/07/04 10:40:56;;;;;;;13.60;8.40;;;;;;;;;;4956706;29;20043;-80
2022/07/04 10:44:21;;;;;;;14.53;8.73;;;;;;;;;;4956497;29;20047;-80
2022/07/04 10:47:27;;;;;;;14.05;9.00;;;;;;;;;;4897066;29;20040;-79
2022/07/04 10:50:28;;;;;;;12.48;8.23;;;;;;;;;;4956448;29;20044;-80
2022/07/04 10:53:12;;;;;;;17.10;8.43;;;;;;;;;;4956403;29;20043;-79
2022/07/04 10:56:26;;;;;;;13.68;9.25;;;;;;;;;;4956492;29;20047;-79
2022/07/04 10:59:15;;;;;;;12.27;9.00;;;;;;;;;;4942619;29;20035;-80
2022/07/04 11:02:07;;;;;;;12.98;8.32;;;;;;;;;;4956371;29;20051;-80
2022/07/04 11:04:56;;;;;;;15.15;8.45;;;;;;;;;;4956477;29;20051;-79
2022/07/04 11:07:41;;;;;;;13.38;8.43;;;;;;;;;;4948161;28;20047;-80
2022/07/04 11:10:29;;;;;;;16.42;8.43;;;;;;;;;;4956156;29;20043;-79
2022/07/04 11:13:16;;;;;;;13.32;8.57;;;;;;;;;;4956099;29;20039;-79
2022/07/04 11:16:03;;;;;;;14.45;8.75;;;;;;;;;;4956160;29;20047;-80
2022/07/04 11:18:48;;;;;;;13.68;8.85;;;;;;;;;;4955894;29;20043;-79
2022/07/04 11:21:34;;;;;;;12.75;7.85;;;;;;;;;;4955903;29;20039;-80
2022/07/04 11:24:19;;;;;;;15.25;8.75;;;;;;;;;;4956254;29;20047;-81
2022/07/04 11:27:08;;;;;;;16.77;8.98;;;;;;;;;;4955970;29;20055;-79
2022/07/04 11:29:53;;;;;;;12.68;9.05;;;;;;;;;;4955525;29;20043;-79
2022/07/04 11:32:39;;;;;;;11.82;8.85;;;;;;;;;;4955570;29;20051;-79
2022/07/04 11:35:24;;;;;;;11.30;8.98;;;;;;;;;;4955833;29;20039;-79
2022/07/04 11:38:09;;;;;;;12.18;7.97;;;;;;;;;;4955569;29;20035;-79
2022/07/04 11:47:12;;;;;;;14.77;8.20;;;;;;;;;;4961467;28;20039;-80
2022/07/04 11:50:00;;;;;;;13.85;7.45;;;;;;;;;;4953824;29;20672;-81
2022/07/04 11:52:47;;;;;;;14.38;8.15;;;;;;;;;;4954769;29;20043;-82
2022/07/04 11:55:33;;;;;;;12.68;8.57;;;;;;;;;;4954683;29;20051;-80
2022/07/04 11:58:19;;;;;;;9.95;7.93;;;;;;;;;;4955690;29;20047;-80
2022/07/04 12:01:04;;;;;;;12.27;8.40;;;;;;;;;;4955516;29;20051;-80
2022/07/04 12:03:50;;;;;;;14.27;8.63;;;;;;;;;;4955073;29;20496;-81
2022/07/04 12:06:35;;;;;;;12.57;6.88;;;;;;;;;;4955513;29;20051;-79
2022/07/04 12:09:20;;;;;;;16.70;8.43;;;;;;;;;;4954943;29;20489;-81
2022/07/04 12:12:06;;;;;;;19.38;9.15;;;;;;;;;;4955284;29;20047;-82
2022/07/04 12:14:59;;;;;;;16.58;9.10;;;;;;;;;;4955688;29;20051;-80
2022/07/04 12:17:54;;;;;;;24.48;9.98;;;;;;;;;;4955332;29;20055;-82
2022/07/04 12:20:39;;;;;;;;;;;;;;;;;;4947705;29;20043;-82
2022/07/04 12:23:28;;;;;;;21.48;9.85;;;;;;;;;;4955202;29;19914;-80
2022/07/04 12:26:14;;;;;;;18.75;11.45;;;;;;;;;;4955360;29;20051;-79
2022/07/04 12:28:59;;;;;;;20.67;9.95;;;;;;;;;;4955288;29;20051;-81
2022/07/04 12:31:45;;;;;;;15.60;9.57;;;;;;;;;;4955359;29;20039;-81
2022/07/04 12:34:30;;;;;;;28.58;14.25;;;;;;;;;;4955136;29;20051;-81
2022/07/04 12:37:16;;;;;;;23.33;17.02;;;;;;;;;;4955074;29;20043;-81
2022/07/04 12:40:08;;;;;;;25.58;19.63;;;;;;;;;;4956350;29;20048;-82
2022/07/04 12:42:56;;;;;;;18.00;12.68;;;;;;;;;;4954961;29;20060;-80
2022/07/04 12:45:50;;;;;;;18.73;14.60;;;;;;;;;;4946973;29;20043;-80
2022/07/04 12:48:35;;;;;;;18.20;13.90;;;;;;;;;;4946960;28;20051;-80
2022/07/04 12:51:32;;;;;;;23.02;14.68;;;;;;;;;;4955098;29;20405;-80
2022/07/04 12:54:17;;;;;;;21.45;13.57;;;;;;;;;;4948228;28;20043;-81
2022/07/04 12:57:12;;;;;;;18.13;14.23;;;;;;;;;;4958485;29;20043;-84
2022/07/04 12:59:58;;;;;;;18.80;13.63;;;;;;;;;;4958540;29;20102;-77
2022/07/04 13:02:43;;;;;;;25.58;13.95;;;;;;;;;;4958478;29;20433;-77
2022/07/04 13:05:29;;;;;;;21.20;13.27;;;;;;;;;;4958512;29;20047;-77
2022/07/04 13:08:14;;;;;;;16.80;11.63;;;;;;;;;;4958413;29;20046;-76
2022/07/04 13:14:03;;;;;;;14.35;12.55;;;;;;;;;;4958360;29;20047;-77
2022/07/04 13:16:49;;;;;;;15.05;12.05;;;;;;;;;;4964581;28;20047;-77
2022/07/04 13:19:34;;;;;;;13.98;12.43;;;;;;;;;;4957641;29;20043;-77
2022/07/04 13:22:22;;;;;;;14.60;12.25;;;;;;;;;;4958075;29;20047;-74
2022/07/04 13:25:07;;;;;;;17.35;12.52;;;;;;;;;;4957866;29;20047;-77
2022/07/04 13:27:52;;;;;;;17.92;11.73;;;;;;;;;;4964341;28;20055;-78
2022/07/04 13:30:38;;;;;;;21.08;13.48;;;;;;;;;;4957673;29;20043;-76
2022/07/04 13:33:24;;;;;;;17.38;12.15;;;;;;;;;;4957488;29;20047;-77
2022/07/04 13:36:09;;;;;;;17.73;12.13;;;;;;;;;;4964235;28;20051;-76
2022/07/04 13:38:55;;;;;;;18.88;12.05;;;;;;;;;;4957896;29;20035;-76
2022/07/04 13:41:41;;;;;;;16.52;11.50;;;;;;;;;;4957766;29;20047;-77
2022/07/04 13:44:27;;;;;;;17.27;11.10;;;;;;;;;;4938831;29;20045;-76
2022/07/04 13:47:12;;;;;;;14.90;11.43;;;;;;;;;;4938416;29;20039;-76
2022/07/04 13:49:58;;;;;;;14.23;10.20;;;;;;;;;;4938545;29;20044;-77
2022/07/04 13:52:44;;;;;;;17.92;9.68;;;;;;;;;;4938829;29;20043;-77
2022/07/04 13:55:29;;;;;;;14.55;8.32;;;;;;;;;;4938600;29;20044;-76
2022/07/04 13:58:15;;;;;;;14.00;8.65;;;;;;;;;;4938731;29;20052;-76
2022/07/04 14:01:00;;;;;;;14.95;8.18;;;;;;;;;;4938633;29;20405;-77
2022/07/04 14:03:47;;;;;;;15.25;10.73;;;;;;;;;;4938035;29;20055;-77
2022/07/04 14:06:33;;;;;;;12.88;8.45;;;;;;;;;;4937257;29;20048;-76
2022/07/04 14:09:19;;;;;;;13.85;8.55;;;;;;;;;;4938104;29;20043;-76
2022/07/04 14:12:05;;;;;;;18.52;9.40;;;;;;;;;;4938497;29;20044;-77
2022/07/04 14:14:50;;;;;;;14.02;9.65;;;;;;;;;;4938099;29;20048;-77
2022/07/04 14:17:36;;;;;;;15.82;8.73;;;;;;;;;;4938007;29;20489;-76
2022/07/04 14:20:21;;;;;;;15.55;9.15;;;;;;;;;;4937321;29;20036;-76
2022/07/04 14:23:07;;;;;;;15.60;8.77;;;;;;;;;;4937705;29;20056;-77
2022/07/04 14:25:52;;;;;;;13.80;8.82;;;;;;;;;;4937547;29;20047;-76
2022/07/04 14:28:38;;;;;;;12.15;8.30;;;;;;;;;;4937698;29;20044;-77
2022/07/04 14:31:23;;;;;;;15.57;7.88;;;;;;;;;;4937924;29;20048;-77
2022/07/04 14:34:11;;;;;;;10.80;8.25;;;;;;;;;;4937729;29;20048;-76
2022/07/04 14:36:57;;;;;;;13.98;7.82;;;;;;;;;;4937712;29;20051;-75
2022/07/04 14:39:42;;;;;;;9.70;7.38;;;;;;;;;;4937352;29;20051;-76
2022/07/04 14:42:28;;;;;;;12.30;7.20;;;;;;;;;;4941637;29;20055;-77
2022/07/04 14:45:13;;;;;;;11.02;7.45;;;;;;;;;;4957044;29;20040;-76
2022/07/04 14:47:59;;;;;;;12.18;7.80;;;;;;;;;;4956570;29;20043;-77
2022/07/04 14:50:47;;;;;;;14.63;7.85;;;;;;;;;;4956213;29;20409;-77
2022/07/04 14:53:32;;;;;;;14.98;7.70;;;;;;;;;;4956314;29;20441;-77
2022/07/04 14:56:17;;;;;;;13.85;7.65;;;;;;;;;;4956361;29;20481;-76
2022/07/04 14:59:03;;;;;;;12.85;6.95;;;;;;;;;;4956301;29;20043;-76
2022/07/04 15:01:49;;;;;;;11.40;7.50;;;;;;;;;;4956281;29;20051;-77
2022/07/04 15:04:35;;;;;;;22.50;7.93;;;;;;;;;;4956207;29;20043;-76
2022/07/04 15:07:20;;;;;;;12.77;7.35;;;;;;;;;;4962467;28;20055;-76
2022/07/04 15:10:09;;;;;;;14.30;7.50;;;;;;;;;;4955962;29;20051;-77
2022/07/04 15:12:55;;;;;;;15.68;7.82;;;;;;;;;;4956450;29;20501;-77
2022/07/04 15:15:41;;;;;;;14.38;7.53;;;;;;;;;;4955983;29;20035;-78
2022/07/04 15:18:30;;;;;;;15.18;7.82;;;;;;;;;;4955912;28;20047;-76
2022/07/04 15:24:18;;;;;;;9.90;7.13;;;;;;;;;;4956054;29;20047;-75
2022/07/04 15:27:04;;;;;;;13.98;7.03;;;;;;;;;;4955393;29;20047;-77
2022/07/04 15:29:50;;;;;;;10.18;7.18;;;;;;;;;;4955984;29;20477;-76
2022/07/04 15:32:35;;;;;;;11.10;7.78;;;;;;;;;;4955856;29;20047;-76
2022/07/04 15:35:21;;;;;;;8.60;6.85;;;;;;;;;;4956347;29;20051;-76
2022/07/04 15:38:07;;;;;;;14.52;7.00;;;;;;;;;;4955617;29;20035;-76
2022/07/04 15:40:52;;;;;;;15.75;7.72;;;;;;;;;;4955636;29;20039;-77
2022/07/04 15:43:41;;;;;;;13.13;6.88;;;;;;;;;;4955606;29;20051;-76
2022/07/04 15:46:26;;;;;;;15.13;7.53;;;;;;;;;;4955484;29;20043;-77
2022/07/04 15:49:12;;;;;;;14.70;7.13;;;;;;;;;;4955686;29;20043;-76
2022/07/04 15:51:57;;;;;;;17.08;7.65;;;;;;;;;;4955552;29;20496;-77
2022/07/04 15:54:43;;;;;;;15.23;7.22;;;;;;;;;;4955811;29;20039;-77
2022/07/04 15:57:29;;;;;;;13.93;7.07;;;;;;;;;;4955518;29;20043;-76
2022/07/04 16:00:15;;;;;;;11.88;7.10;;;;;;;;;;4954861;29;20039;-76
2022/07/04 16:03:01;;;;;;;12.82;7.18;;;;;;;;;;4955627;29;20039;-77
2022/07/04 16:05:46;;;;;;;11.73;7.43;;;;;;;;;;4955563;29;20048;-76
2022/07/04 16:08:32;;;;;;;13.60;7.18;;;;;;;;;;4955489;29;20043;-76
2022/07/04 16:11:17;;;;;;;11.35;7.20;;;;;;;;;;4954926;29;20039;-78
2022/07/04 16:14:04;;;;;;;13.30;6.57;;;;;;;;;;4954468;29;20051;-78
2022/07/04 16:16:50;;;;;;;17.27;7.20;;;;;;;;;;4954298;29;20051;-78
2022/07/04 16:19:35;;;;;;;11.00;7.18;;;;;;;;;;4955263;29;20051;-79
2022/07/04 16:22:21;;;;;;;14.55;7.00;;;;;;;;;;4954860;29;20047;-78
2022/07/04 16:25:07;;;;;;;14.52;7.30;;;;;;;;;;4954939;29;20051;-78
2022/07/04 16:27:52;;;;;;;9.60;6.90;;;;;;;;;;4954910;29;20043;-78
2022/07/04 16:30:38;;;;;;;10.70;7.40;;;;;;;;;;4957793;28;20512;-77
2022/07/04 16:33:23;;;;;;;14.93;7.10;;;;;;;;;;4959046;29;20051;-77
2022/07/04 16:36:09;;;;;;;15.18;7.88;;;;;;;;;;4958667;29;20047;-77
2022/07/04 16:38:54;;;;;;;15.00;7.43;;;;;;;;;;4958954;29;20043;-77
2022/07/04 16:41:40;;;;;;;14.02;7.93;;;;;;;;;;4958649;29;20385;-77
2022/07/04 16:44:26;;;;;;;18.55;8.82;;;;;;;;;;4958761;29;20047;-77
2022/07/04 16:47:11;;;;;;;16.35;9.68;;;;;;;;;;4959031;29;20047;-77
2022/07/04 16:49:57;;;;;;;18.95;10.38;;;;;;;;;;4950545;28;20047;-77